createdAt,value
2023-04-29T00:01:22.982Z,76.96
2023-04-29T00:03:49.971Z,76.62
2023-04-29T00:06:17.168Z,76.33
2023-04-29T00:08:44.090Z,76.61
2023-04-29T00:11:11.661Z,76.59
2023-04-29T00:13:40.840Z,77.25
2023-04-29T00:16:10.193Z,77.19
2023-04-29T00:18:37.930Z,77.34
2023-04-29T00:21:07.858Z,77.64
2023-04-29T00:23:34.790Z,78.09
2023-04-29T00:26:01.618Z,77.81
2023-04-29T00:28:28.458Z,77.97
2023-04-29T00:30:56.031Z,79.09
2023-04-29T00:33:23.159Z,78.32
2023-04-29T00:35:50.323Z,77.64
2023-04-29T00:38:17.245Z,78.81
2023-04-29T00:40:44.918Z,78.09
2023-04-29T00:43:11.753Z,79.00
2023-04-29T00:45:38.585Z,78.65
2023-04-29T00:48:05.559Z,78.32
2023-04-29T00:50:32.493Z,78.00
2023-04-29T00:53:00.193Z,77.20
2023-04-29T00:55:27.435Z,77.05
2023-04-29T00:57:54.407Z,77.01
2023-04-29T01:00:21.647Z,76.85
2023-04-29T01:02:50.120Z,76.33
2023-04-29T01:05:17.993Z,76.19
2023-04-29T01:08:11.369Z,77.29
2023-04-29T01:11:23.246Z,77.47
2023-04-29T01:14:00.920Z,76.93
2023-04-29T01:16:53.136Z,76.56
2023-04-29T01:19:38.594Z,76.25
2023-04-29T01:22:05.412Z,76.38
2023-04-29T01:24:32.575Z,76.57
2023-04-29T01:28:03.988Z,76.64
2023-04-29T01:31:07.143Z,76.64
2023-04-29T01:34:15.175Z,76.34
2023-04-29T01:36:53.179Z,76.66
2023-04-29T01:39:33.087Z,76.66
2023-04-29T01:42:41.739Z,77.10
2023-04-29T01:45:11.071Z,77.07
2023-04-29T01:47:39.285Z,77.58
2023-04-29T01:50:06.949Z,76.67
2023-04-29T01:52:33.831Z,78.22
2023-04-29T01:55:00.985Z,77.63
2023-04-29T01:57:27.765Z,78.02
2023-04-29T01:59:54.829Z,77.59
2023-04-29T02:02:23.551Z,77.02
2023-04-29T02:04:50.759Z,77.94
2023-04-29T02:07:17.765Z,76.94
2023-04-29T02:09:44.744Z,79.03
2023-04-29T02:12:11.637Z,78.88
2023-04-29T02:14:38.717Z,78.30
2023-04-29T02:17:05.631Z,77.40
2023-04-29T02:19:32.493Z,77.20
2023-04-29T02:21:59.342Z,76.64
2023-04-29T02:24:26.327Z,76.65
2023-04-29T02:26:53.602Z,76.40
2023-04-29T02:29:20.506Z,76.25
2023-04-29T02:31:47.510Z,75.80
2023-04-29T02:34:14.339Z,75.92
2023-04-29T02:36:41.161Z,75.94
2023-04-29T02:39:08.002Z,76.35
2023-04-29T02:41:34.887Z,76.46
2023-04-29T02:44:01.682Z,76.70
2023-04-29T02:46:28.881Z,76.78
2023-04-29T02:48:55.925Z,76.79
2023-04-29T02:51:22.786Z,77.06
2023-04-29T02:53:49.593Z,76.66
2023-04-29T02:56:16.502Z,76.95
2023-04-29T02:58:43.841Z,76.50
2023-04-29T03:01:11.209Z,76.62
2023-04-29T03:03:38.184Z,76.69
2023-04-29T03:06:05.063Z,77.07
2023-04-29T03:08:32.695Z,77.41
2023-04-29T03:10:59.948Z,77.67
2023-04-29T03:13:26.926Z,77.34
2023-04-29T03:15:53.999Z,77.40
2023-04-29T03:18:20.852Z,77.30
2023-04-29T03:20:47.652Z,77.07
2023-04-29T03:23:14.444Z,76.99
2023-04-29T03:25:41.690Z,76.81
2023-04-29T03:28:08.687Z,77.09
2023-04-29T03:30:35.576Z,77.37
2023-04-29T03:33:02.561Z,76.97
2023-04-29T03:35:29.400Z,77.13
2023-04-29T03:37:56.206Z,76.95
2023-04-29T03:40:23.120Z,77.39
2023-04-29T03:42:50.246Z,77.23
2023-04-29T03:45:17.637Z,77.12
2023-04-29T03:47:44.536Z,77.15
2023-04-29T03:50:11.885Z,77.82
2023-04-29T03:52:38.923Z,77.39
2023-04-29T03:55:06.117Z,78.11
2023-04-29T03:57:32.930Z,78.33
2023-04-29T03:59:59.821Z,78.28
2023-04-29T04:02:26.886Z,78.24
2023-04-29T04:04:55.316Z,78.64
2023-04-29T04:07:22.353Z,78.27
2023-04-29T04:09:49.273Z,78.74
2023-04-29T04:12:16.176Z,78.23
2023-04-29T04:14:43.111Z,78.19
2023-04-29T04:17:10.197Z,78.48
2023-04-29T04:19:37.053Z,78.38
2023-04-29T04:22:04.740Z,78.21
2023-04-29T04:24:31.604Z,78.20
2023-04-29T04:26:58.516Z,77.92
2023-04-29T04:29:25.306Z,78.26
2023-04-29T04:31:52.193Z,78.26
2023-04-29T04:34:19.351Z,78.58
2023-04-29T04:36:46.778Z,78.67
2023-04-29T04:39:13.623Z,78.95
2023-04-29T04:41:40.487Z,78.68
2023-04-29T04:44:07.378Z,79.08
2023-04-29T04:46:35.061Z,78.74
2023-04-29T04:49:01.831Z,78.41
2023-04-29T04:51:31.214Z,78.40
2023-04-29T04:53:58.037Z,79.43
2023-04-29T04:56:24.891Z,78.65
2023-04-29T04:58:51.751Z,78.02
2023-04-29T05:01:18.760Z,78.51
2023-04-29T05:03:45.937Z,79.74
2023-04-29T05:06:12.982Z,79.16
2023-04-29T05:08:39.846Z,79.21
2023-04-29T05:11:06.663Z,79.20
2023-04-29T05:13:34.399Z,78.75
2023-04-29T05:16:06.349Z,78.81
2023-04-29T05:18:33.516Z,77.78
2023-04-29T05:21:00.386Z,77.73
2023-04-29T05:23:27.938Z,78.37
2023-04-29T05:25:54.822Z,77.44
2023-04-29T05:28:21.794Z,77.11
2023-04-29T05:30:52.011Z,77.35
2023-04-29T05:33:19.099Z,77.04
2023-04-29T05:35:46.044Z,76.95
2023-04-29T05:38:13.372Z,75.81
2023-04-29T05:40:40.685Z,76.12
2023-04-29T05:43:07.694Z,75.58
2023-04-29T05:45:34.478Z,74.47
2023-04-29T05:48:01.391Z,74.98
2023-04-29T05:50:28.295Z,74.38
2023-04-29T05:52:56.453Z,74.81
2023-04-29T05:55:23.986Z,74.13
2023-04-29T05:57:50.813Z,73.81
2023-04-29T06:00:17.618Z,73.03
2023-04-29T06:02:57.507Z,74.46
2023-04-29T06:05:26.948Z,72.74
2023-04-29T06:07:54.336Z,70.90
2023-04-29T06:10:21.234Z,71.24
2023-04-29T06:12:50.846Z,70.91
2023-04-29T06:15:17.947Z,69.63
2023-04-29T06:17:45.120Z,69.44
2023-04-29T06:20:12.702Z,70.22
2023-04-29T06:22:39.480Z,69.68
2023-04-29T06:25:06.648Z,71.82
2023-04-29T06:27:33.505Z,71.14
2023-04-29T06:30:00.617Z,70.94
2023-04-29T06:32:27.470Z,71.80
2023-04-29T06:34:54.322Z,71.53
2023-04-29T06:37:21.288Z,72.79
2023-04-29T06:39:48.246Z,73.62
2023-04-29T06:42:15.143Z,73.95
2023-04-29T06:44:42.011Z,74.38
2023-04-29T06:47:08.845Z,73.57
2023-04-29T06:49:35.748Z,73.51
2023-04-29T06:52:02.763Z,73.73
2023-04-29T06:54:29.717Z,72.48
2023-04-29T06:56:58.145Z,71.88
2023-04-29T06:59:25.044Z,71.57
2023-04-29T07:01:52.333Z,71.66
2023-04-29T07:04:19.431Z,70.17
2023-04-29T07:06:47.133Z,70.83
2023-04-29T07:09:14.735Z,70.96
2023-04-29T07:11:42.787Z,70.31
2023-04-29T07:14:09.705Z,70.64
2023-04-29T07:16:36.546Z,68.95
2023-04-29T07:19:03.500Z,68.97
2023-04-29T07:21:31.296Z,67.68
2023-04-29T07:24:00.776Z,69.10
2023-04-29T07:26:27.903Z,67.56
2023-04-29T07:28:54.781Z,68.81
2023-04-29T07:31:22.506Z,66.71
2023-04-29T07:33:49.509Z,64.59
2023-04-29T07:36:19.864Z,67.01
2023-04-29T07:38:46.843Z,62.82
2023-04-29T07:41:13.815Z,62.90
2023-04-29T07:43:42.360Z,66.63
2023-04-29T07:46:09.562Z,62.84
2023-04-29T07:48:39.490Z,62.77
2023-04-29T07:51:06.785Z,63.23
2023-04-29T07:53:33.733Z,60.44
2023-04-29T07:56:07.500Z,62.33
2023-04-29T07:58:34.709Z,60.55
2023-04-29T08:01:12.229Z,60.58
2023-04-29T08:03:41.600Z,57.44
2023-04-29T08:06:09.371Z,58.23
2023-04-29T08:08:36.262Z,58.03
2023-04-29T08:11:03.463Z,58.21
2023-04-29T08:13:30.316Z,59.62
2023-04-29T08:15:57.236Z,59.38
2023-04-29T08:18:24.108Z,59.90
2023-04-29T08:20:51.577Z,59.41
2023-04-29T08:23:18.486Z,59.67
2023-04-29T08:25:45.407Z,56.73
2023-04-29T08:28:12.356Z,55.92
2023-04-29T08:30:42.304Z,53.27
2023-04-29T08:33:09.298Z,55.25
2023-04-29T08:35:39.275Z,55.17
2023-04-29T08:38:06.920Z,54.14
2023-04-29T08:40:42.840Z,56.16
2023-04-29T08:43:10.726Z,56.07
2023-04-29T08:45:39.478Z,52.34
2023-04-29T08:48:08.129Z,55.18
2023-04-29T08:50:40.670Z,53.56
2023-04-29T08:53:09.559Z,52.94
2023-04-29T08:55:43.400Z,53.74
2023-04-29T08:58:12.569Z,53.52
2023-04-29T09:00:42.596Z,54.06
2023-04-29T09:03:34.948Z,52.35
2023-04-29T09:06:03.522Z,53.09
2023-04-29T09:08:30.845Z,53.19
2023-04-29T09:10:58.934Z,51.15
2023-04-29T09:13:32.881Z,51.06
2023-04-29T09:15:59.959Z,50.95
2023-04-29T09:18:52.366Z,49.99
2023-04-29T09:21:24.318Z,48.85
2023-04-29T09:24:01.952Z,48.60
2023-04-29T09:26:42.689Z,50.53
2023-04-29T09:29:18.228Z,47.93
2023-04-29T09:31:46.356Z,51.47
2023-04-29T09:34:14.312Z,48.93
2023-04-29T09:36:47.798Z,50.29
2023-04-29T09:39:22.793Z,48.69
2023-04-29T09:41:52.561Z,50.54
2023-04-29T09:44:31.300Z,46.38
2023-04-29T09:47:06.872Z,48.33
2023-04-29T09:49:42.583Z,48.73
2023-04-29T09:52:13.385Z,48.32
2023-04-29T09:54:41.986Z,48.98
2023-04-29T09:57:11.599Z,48.65
2023-04-29T09:59:41.404Z,48.67
2023-04-29T10:02:20.908Z,48.28
2023-04-29T10:04:57.784Z,50.56
2023-04-29T10:07:26.976Z,47.78
2023-04-29T10:09:55.069Z,47.37
2023-04-29T10:12:22.387Z,46.83
2023-04-29T10:15:19.011Z,47.31
2023-04-29T10:18:22.221Z,45.12
2023-04-29T10:20:49.610Z,44.52
2023-04-29T10:23:20.286Z,45.82
2023-04-29T10:25:48.694Z,45.66
2023-04-29T10:28:19.571Z,42.98
2023-04-29T10:30:52.166Z,43.20
2023-04-29T10:33:19.473Z,42.88
2023-04-29T10:35:48.491Z,41.88
2023-04-29T10:38:31.132Z,42.49
2023-04-29T10:41:00.231Z,42.73
2023-04-29T10:43:27.846Z,44.46
2023-04-29T10:46:16.754Z,41.85
2023-04-29T10:48:55.671Z,43.16
2023-04-29T10:51:45.652Z,42.62
2023-04-29T10:54:18.899Z,42.93
2023-04-29T10:56:51.824Z,43.64
2023-04-29T10:59:42.614Z,42.72
2023-04-29T11:02:10.756Z,39.59
2023-04-29T11:05:10.543Z,41.04
2023-04-29T11:07:37.469Z,41.03
2023-04-29T11:10:04.947Z,41.60
2023-04-29T11:12:31.736Z,41.85
2023-04-29T11:15:04.857Z,38.46
2023-04-29T11:17:38.590Z,39.44
2023-04-29T11:20:14.842Z,39.47
2023-04-29T11:22:51.042Z,38.62
2023-04-29T11:25:18.921Z,39.35
2023-04-29T11:27:48.391Z,40.28
2023-04-29T11:30:16.761Z,40.54
2023-04-29T11:32:43.843Z,40.07
2023-04-29T11:35:16.330Z,40.18
2023-04-29T11:37:45.703Z,39.99
2023-04-29T11:40:13.674Z,38.96
2023-04-29T11:42:48.629Z,39.08
2023-04-29T11:45:18.277Z,39.19
2023-04-29T11:47:47.475Z,39.75
2023-04-29T11:50:20.377Z,39.70
2023-04-29T11:52:49.522Z,38.20
2023-04-29T11:55:16.688Z,38.01
2023-04-29T11:57:43.740Z,39.16
2023-04-29T12:00:15.128Z,39.04
2023-04-29T12:02:49.053Z,38.61
2023-04-29T12:05:17.368Z,39.61
2023-04-29T12:07:44.851Z,40.14
2023-04-29T12:10:12.440Z,40.19
2023-04-29T12:12:46.592Z,39.96
2023-04-29T12:15:14.473Z,38.37
2023-04-29T12:17:42.781Z,38.82
2023-04-29T12:20:11.921Z,38.77
2023-04-29T12:22:39.105Z,39.10
2023-04-29T12:25:07.731Z,39.93
2023-04-29T12:27:36.352Z,40.16
2023-04-29T12:30:09.646Z,39.34
2023-04-29T12:32:37.222Z,39.78
2023-04-29T12:35:04.597Z,36.94
2023-04-29T12:37:31.452Z,39.34
2023-04-29T12:39:58.320Z,39.98
2023-04-29T12:42:33.131Z,40.76
2023-04-29T12:45:00.020Z,41.26
2023-04-29T12:47:37.215Z,40.50
2023-04-29T12:50:07.096Z,38.55
2023-04-29T12:52:36.452Z,38.85
2023-04-29T12:55:04.630Z,36.90
2023-04-29T12:57:31.545Z,37.15
2023-04-29T12:59:58.315Z,37.95
2023-04-29T13:02:26.190Z,37.18
2023-04-29T13:04:53.479Z,38.68
2023-04-29T13:07:21.026Z,38.80
2023-04-29T13:09:47.884Z,39.48
2023-04-29T13:12:14.701Z,38.35
2023-04-29T13:14:41.567Z,37.37
2023-04-29T13:17:08.423Z,37.45
2023-04-29T13:22:06.744Z,38.02
2023-04-29T13:24:35.878Z,37.19
2023-04-29T13:27:05.963Z,38.21
2023-04-29T13:29:32.886Z,39.69
2023-04-29T13:31:59.799Z,41.45
2023-04-29T13:34:26.598Z,42.93
2023-04-29T13:36:53.410Z,43.61
2023-04-29T13:39:22.947Z,44.20
2023-04-29T13:41:50.093Z,44.62
2023-04-29T13:44:27.136Z,45.28
2023-04-29T13:46:55.897Z,44.77
2023-04-29T13:49:54.728Z,44.58
2023-04-29T13:53:01.765Z,43.58
2023-04-29T13:55:46.659Z,42.78
2023-04-29T14:00:38.013Z,44.12
2023-04-29T14:03:05.488Z,41.65
2023-04-29T14:05:32.532Z,40.83
2023-04-29T14:07:59.594Z,40.21
2023-04-29T14:10:26.426Z,38.92
2023-04-29T14:12:53.301Z,38.01
2023-04-29T14:15:20.728Z,37.45
2023-04-29T14:17:50.100Z,36.78
2023-04-29T14:20:16.949Z,38.64
2023-04-29T14:22:44.190Z,38.37
2023-04-29T14:25:12.415Z,36.96
2023-04-29T14:27:39.376Z,36.26
2023-04-29T14:30:07.239Z,36.08
2023-04-29T14:32:34.231Z,36.84
2023-04-29T14:35:01.100Z,37.30
2023-04-29T14:37:27.990Z,38.19
2023-04-29T14:39:54.972Z,39.46
2023-04-29T14:42:21.800Z,39.42
2023-04-29T14:44:48.666Z,40.25
2023-04-29T14:47:15.537Z,36.49
2023-04-29T14:49:42.718Z,35.46
2023-04-29T14:52:09.787Z,34.54
2023-04-29T14:54:36.855Z,36.76
2023-04-29T14:57:03.767Z,37.09
2023-04-29T14:59:31.673Z,35.40
2023-04-29T15:01:58.567Z,36.44
2023-04-29T15:04:25.397Z,36.58
2023-04-29T15:06:52.414Z,36.64
2023-04-29T15:09:19.327Z,35.93
2023-04-29T15:11:46.133Z,34.82
2023-04-29T15:14:13.004Z,33.36
2023-04-29T15:16:39.883Z,33.08
2023-04-29T15:19:06.827Z,32.29
2023-04-29T15:21:34.377Z,34.33
2023-04-29T15:24:02.595Z,36.36
2023-04-29T15:26:29.497Z,36.02
2023-04-29T15:28:56.302Z,34.87
2023-04-29T15:31:25.091Z,35.20
2023-04-29T15:33:55.492Z,36.32
2023-04-29T15:36:30.208Z,37.53
2023-04-29T15:38:57.204Z,39.61
2023-04-29T15:41:27.623Z,40.63
2023-04-29T15:43:56.444Z,40.39
2023-04-29T15:46:23.837Z,40.32
2023-04-29T15:48:50.742Z,39.82
2023-04-29T15:51:17.808Z,41.38
2023-04-29T15:53:44.738Z,41.06
2023-04-29T15:56:11.604Z,42.72
2023-04-29T15:58:38.431Z,42.42
2023-04-29T16:01:07.867Z,44.33
2023-04-29T16:03:35.163Z,43.60
2023-04-29T16:06:02.048Z,45.44
2023-04-29T16:08:28.949Z,45.25
2023-04-29T16:10:56.084Z,44.79
2023-04-29T16:13:22.979Z,45.18
2023-04-29T16:15:49.970Z,45.54
2023-04-29T16:18:17.888Z,44.80
2023-04-29T16:20:45.487Z,44.14
2023-04-29T16:23:12.459Z,43.09
2023-04-29T16:25:41.518Z,41.70
2023-04-29T16:28:08.436Z,39.38
2023-04-29T16:30:36.074Z,38.66
2023-04-29T16:33:03.356Z,40.07
2023-04-29T16:35:31.023Z,42.67
2023-04-29T16:37:58.011Z,43.43
2023-04-29T16:40:24.949Z,45.36
2023-04-29T16:42:53.324Z,47.12
2023-04-29T16:45:23.583Z,47.40
2023-04-29T16:47:50.887Z,47.81
2023-04-29T16:50:18.086Z,47.77
2023-04-29T16:52:45.085Z,48.29
2023-04-29T16:55:15.246Z,49.63
2023-04-29T16:57:42.336Z,49.48
2023-04-29T17:00:12.530Z,50.27
2023-04-29T17:02:43.063Z,50.70
2023-04-29T17:05:10.854Z,50.63
2023-04-29T17:07:38.039Z,50.68
2023-04-29T17:10:06.553Z,50.75
2023-04-29T17:12:33.668Z,52.20
2023-04-29T17:15:00.742Z,52.59
2023-04-29T17:17:27.767Z,52.53
2023-04-29T17:19:55.378Z,53.78
2023-04-29T17:22:22.724Z,53.62
2023-04-29T17:24:50.719Z,53.85
2023-04-29T17:27:17.836Z,53.93
2023-04-29T17:29:44.670Z,54.64
2023-04-29T17:32:17.197Z,54.47
2023-04-29T17:34:44.244Z,55.17
2023-04-29T17:37:11.206Z,54.80
2023-04-29T17:39:38.058Z,54.99
2023-04-29T17:42:05.076Z,55.36
2023-04-29T17:44:31.957Z,55.63
2023-04-29T17:46:58.739Z,56.02
2023-04-29T17:49:25.699Z,56.45
2023-04-29T17:51:52.561Z,56.83
2023-04-29T17:54:19.413Z,57.40
2023-04-29T17:56:46.286Z,57.94
2023-04-29T17:59:13.155Z,58.61
2023-04-29T18:01:40.287Z,58.44
2023-04-29T18:04:07.536Z,58.37
2023-04-29T18:06:34.878Z,58.44
2023-04-29T18:09:01.802Z,58.47
2023-04-29T18:11:29.128Z,58.46
2023-04-29T18:13:55.982Z,58.84
2023-04-29T18:16:22.917Z,58.58
2023-04-29T18:18:56.634Z,58.55
2023-04-29T18:21:25.432Z,59.36
2023-04-29T18:23:52.247Z,59.12
2023-04-29T18:26:19.299Z,59.39
2023-04-29T18:28:46.867Z,59.75
2023-04-29T18:31:15.677Z,60.16
2023-04-29T18:33:43.622Z,59.44
2023-04-29T18:36:10.835Z,60.30
2023-04-29T18:38:37.671Z,60.48
2023-04-29T18:41:06.547Z,60.54
2023-04-29T18:43:33.385Z,60.44
2023-04-29T18:46:00.514Z,61.27
2023-04-29T18:48:30.856Z,61.55
2023-04-29T18:51:00.064Z,61.79
2023-04-29T18:53:27.000Z,61.89
2023-04-29T18:55:53.914Z,62.00
2023-04-29T18:58:20.749Z,62.33
2023-04-29T19:00:47.756Z,62.64
2023-04-29T19:03:15.759Z,62.52
2023-04-29T19:05:43.075Z,62.77
2023-04-29T19:08:09.996Z,62.95
2023-04-29T19:10:36.832Z,62.97
2023-04-29T19:13:03.642Z,63.24
2023-04-29T19:15:32.042Z,63.42
2023-04-29T19:17:59.006Z,63.68
2023-04-29T19:20:27.293Z,63.31
2023-04-29T19:22:54.124Z,63.67
2023-04-29T19:25:21.728Z,64.16
2023-04-29T19:27:51.368Z,64.48
2023-04-29T19:30:18.373Z,65.39
2023-04-29T19:32:46.410Z,65.38
2023-04-29T19:35:13.394Z,65.72
2023-04-29T19:37:40.579Z,65.25
2023-04-29T19:40:10.551Z,65.42
2023-04-29T19:42:38.080Z,64.95
2023-04-29T19:45:07.795Z,64.98
2023-04-29T19:47:35.115Z,65.01
2023-04-29T19:50:02.816Z,65.48
2023-04-29T19:52:29.832Z,65.22
2023-04-29T19:54:57.119Z,65.04
2023-04-29T19:57:23.962Z,65.32
2023-04-29T19:59:50.810Z,64.96
2023-04-29T20:02:17.771Z,65.30
2023-04-29T20:04:44.690Z,64.93
2023-04-29T20:07:11.527Z,65.64
2023-04-29T20:09:38.581Z,65.57
2023-04-29T20:12:05.901Z,65.41
2023-04-29T20:14:32.906Z,65.41
2023-04-29T20:17:00.721Z,65.58
2023-04-29T20:19:27.903Z,64.51
2023-04-29T20:21:54.741Z,64.86
2023-04-29T20:24:21.624Z,65.01
2023-04-29T20:26:48.571Z,64.90
2023-04-29T20:29:15.514Z,64.61
2023-04-29T20:31:42.405Z,65.04
2023-04-29T20:34:09.255Z,65.09
2023-04-29T20:36:36.094Z,65.14
2023-04-29T20:39:03.448Z,65.41
2023-04-29T20:41:30.257Z,65.07
2023-04-29T20:43:58.613Z,64.92
2023-04-29T20:46:26.147Z,65.13
2023-04-29T20:48:53.644Z,65.22
2023-04-29T20:51:20.517Z,64.85
2023-04-29T20:53:47.954Z,64.82
2023-04-29T20:56:14.901Z,65.54
2023-04-29T20:58:41.739Z,65.92
2023-04-29T21:01:08.670Z,65.99
2023-04-29T21:03:35.610Z,65.93
2023-04-29T21:06:02.489Z,66.36
2023-04-29T21:08:29.451Z,66.28
2023-04-29T21:10:56.720Z,66.46
2023-04-29T21:13:23.566Z,66.43
2023-04-29T21:15:50.937Z,66.47
2023-04-29T21:18:17.966Z,66.81
2023-04-29T21:20:45.692Z,66.84
2023-04-29T21:23:12.541Z,66.60
2023-04-29T21:25:39.475Z,66.29
2023-04-29T21:28:06.595Z,66.21
2023-04-29T21:30:33.472Z,66.08
2023-04-29T21:33:00.371Z,65.63
2023-04-29T21:35:27.519Z,65.26
2023-04-29T21:37:54.570Z,65.63
2023-04-29T21:40:22.576Z,65.58
2023-04-29T21:42:51.068Z,66.02
2023-04-29T21:45:18.019Z,65.80
2023-04-29T21:47:45.314Z,65.53
2023-04-29T21:50:12.244Z,66.02
2023-04-29T21:52:39.316Z,66.01
2023-04-29T21:55:06.894Z,65.92
2023-04-29T21:57:43.621Z,65.68
2023-04-29T22:00:30.808Z,65.54
2023-04-29T22:02:57.719Z,65.18
2023-04-29T22:05:25.152Z,65.17
2023-04-29T22:07:51.972Z,65.96
2023-04-29T22:10:18.979Z,66.19
2023-04-29T22:12:45.811Z,66.06
2023-04-29T22:15:26.817Z,66.42
2023-04-29T22:17:55.248Z,66.17
2023-04-29T22:20:22.365Z,66.19
2023-04-29T22:22:49.204Z,66.53
2023-04-29T22:25:16.134Z,66.73
2023-04-29T22:27:42.931Z,66.53
2023-04-29T22:30:10.212Z,66.58
2023-04-29T22:32:37.042Z,66.92
2023-04-29T22:35:04.554Z,67.33
2023-04-29T22:37:31.604Z,67.60
2023-04-29T22:39:58.461Z,67.64
2023-04-29T22:42:25.263Z,67.83
2023-04-29T22:44:52.095Z,67.69
2023-04-29T22:47:18.955Z,67.86
2023-04-29T22:49:46.386Z,68.02
2023-04-29T22:52:13.183Z,68.47
2023-04-29T22:54:40.023Z,68.56
2023-04-29T22:57:07.440Z,68.28
2023-04-29T22:59:34.317Z,68.77
2023-04-29T23:02:01.184Z,68.49
2023-04-29T23:04:28.105Z,68.06
2023-04-29T23:06:54.966Z,68.16
2023-04-29T23:09:21.824Z,68.03
2023-04-29T23:11:48.661Z,68.32
2023-04-29T23:14:15.565Z,68.47
2023-04-29T23:16:42.406Z,68.30
2023-04-29T23:19:09.238Z,68.70
2023-04-29T23:21:36.142Z,68.73
2023-04-29T23:24:03.212Z,68.73
2023-04-29T23:26:30.610Z,68.86
2023-04-29T23:28:57.430Z,69.16
2023-04-29T23:31:24.351Z,69.07
2023-04-29T23:33:51.206Z,69.04
2023-04-29T23:36:17.989Z,69.05
2023-04-29T23:38:44.814Z,69.09
2023-04-29T23:41:11.711Z,69.20
2023-04-29T23:43:39.574Z,69.19
2023-04-29T23:46:06.561Z,69.51
2023-04-29T23:48:33.462Z,69.46
2023-04-29T23:51:00.443Z,69.75
2023-04-29T23:53:27.321Z,69.85
2023-04-29T23:55:54.147Z,69.52
2023-04-29T23:58:20.921Z,69.86
